Time;durP1;ratioP1;P1;durP2;ratioP2;P2;SDS_P1;SDS_P2;PMS_P1;PMS_P2;Temp;Humidity;BMP_temperature;BMP_pressure;BME280_temperature;BME280_humidity;BME280_pressure;Samples;Min_cycle;Max_cycle;Signal;HPM_P1;HPM_P2
2023/03/16 00:00:42;;;;;;;2.90;2.00;;;-0.10;99.90;;;;;;5093049;28;20196;-83
2023/03/16 00:03:09;;;;;;;2.53;1.83;;;0.00;99.90;;;;;;5075312;28;20164;-83
2023/03/16 00:05:34;;;;;;;2.53;1.60;;;0.00;99.90;;;;;;5093224;28;20227;-83
2023/03/16 00:08:00;;;;;;;2.87;1.70;;;-0.20;99.90;;;;;;5074921;28;20180;-83
2023/03/16 00:10:26;;;;;;;2.43;1.70;;;-0.40;99.90;;;;;;5074687;28;20286;-83
2023/03/16 00:12:55;;;;;;;2.27;1.43;;;-0.40;99.90;;;;;;5074970;28;20169;-83
2023/03/16 00:15:21;;;;;;;2.63;1.80;;;-0.40;99.90;;;;;;5074960;28;20264;-83
2023/03/16 00:17:47;;;;;;;3.00;1.53;;;-0.30;99.90;;;;;;5093026;28;20168;-83
2023/03/16 00:20:17;;;;;;;3.60;1.40;;;-0.20;99.90;;;;;;5092662;28;20171;-83
2023/03/16 00:22:43;;;;;;;1.97;1.60;;;-0.20;99.90;;;;;;5074756;28;20203;-83
2023/03/16 00:25:11;;;;;;;3.00;1.70;;;-0.40;99.90;;;;;;5093125;28;20177;-83
2023/03/16 00:27:37;;;;;;;3.13;1.60;;;-0.30;99.90;;;;;;5074737;28;20646;-83
2023/03/16 00:30:03;;;;;;;2.73;1.50;;;-0.40;99.90;;;;;;5074451;28;20175;-82
2023/03/16 00:32:34;;;;;;;2.87;1.80;;;-0.50;99.90;;;;;;5074805;28;20250;-83
2023/03/16 00:35:01;;;;;;;2.93;2.00;;;-0.50;99.90;;;;;;5074650;28;20172;-83
2023/03/16 00:37:27;;;;;;;4.37;1.70;;;-0.50;99.90;;;;;;5074437;28;20210;-83
2023/03/16 00:39:57;;;;;;;3.50;1.83;;;-0.40;99.90;;;;;;5074574;28;20172;-83
2023/03/16 00:42:26;;;;;;;2.37;1.77;;;-0.30;99.90;;;;;;5092675;28;20602;-83
2023/03/16 00:44:56;;;;;;;3.50;1.70;;;-0.30;99.90;;;;;;5074445;28;20168;-83
2023/03/16 00:47:23;;;;;;;2.57;1.53;;;-0.20;99.90;;;;;;5074421;28;20179;-83
2023/03/16 00:49:49;;;;;;;2.13;1.47;;;-0.30;99.90;;;;;;5074056;28;20601;-83
2023/03/16 00:52:15;;;;;;;2.30;1.70;;;-0.50;99.90;;;;;;5092869;28;20279;-83
2023/03/16 00:54:42;;;;;;;3.37;1.63;;;-0.80;99.90;;;;;;5092644;28;20177;-83
2023/03/16 00:57:09;;;;;;;3.40;1.93;;;-0.90;99.90;;;;;;5092516;28;20586;-83
2023/03/16 00:59:37;;;;;;;3.33;1.80;;;-1.00;99.90;;;;;;5074271;28;20176;-83
2023/03/16 01:02:05;;;;;;;3.33;2.23;;;-1.00;99.90;;;;;;5092236;28;20191;-83
2023/03/16 01:04:31;;;;;;;4.57;2.40;;;-1.10;99.90;;;;;;5074241;28;20210;-83
2023/03/16 01:06:57;;;;;;;3.03;2.00;;;-1.00;99.90;;;;;;5073432;28;20180;-83
2023/03/16 01:09:22;;;;;;;5.63;1.83;;;-0.90;99.90;;;;;;5074512;28;20179;-83
2023/03/16 01:11:52;;;;;;;2.00;1.43;;;-1.00;99.90;;;;;;5074026;28;20206;-83
2023/03/16 01:14:18;;;;;;;2.93;1.60;;;-1.00;99.90;;;;;;5092208;28;20596;-83
2023/03/16 01:16:44;;;;;;;2.43;1.30;;;-1.10;99.90;;;;;;5073943;28;20203;-83
2023/03/16 01:19:11;;;;;;;2.57;1.60;;;-1.00;99.90;;;;;;5092618;28;20160;-83
2023/03/16 01:21:37;;;;;;;2.73;1.60;;;-0.90;99.90;;;;;;5091949;28;20209;-83
2023/03/16 01:24:04;;;;;;;3.00;1.70;;;-0.90;99.90;;;;;;5092334;28;20176;-82
2023/03/16 01:26:30;;;;;;;3.77;1.50;;;-0.90;99.90;;;;;;5074135;28;20168;-83
2023/03/16 01:28:55;;;;;;;3.27;1.70;;;-0.80;99.90;;;;;;5092209;28;20207;-83
2023/03/16 01:31:21;;;;;;;1.90;1.50;;;-0.70;99.90;;;;;;5073944;28;20253;-83
2023/03/16 01:33:46;;;;;;;1.70;1.40;;;-0.70;99.90;;;;;;5074164;28;20204;-83
2023/03/16 01:36:14;;;;;;;3.70;1.40;;;-0.70;99.90;;;;;;5073816;28;20613;-83
2023/03/16 01:38:41;;;;;;;2.00;1.60;;;-0.90;99.90;;;;;;5074060;28;20198;-83
2023/03/16 01:41:07;;;;;;;3.67;1.47;;;-0.80;99.90;;;;;;5073532;28;20202;-83
2023/03/16 01:43:36;;;;;;;3.00;1.30;;;-0.70;99.90;;;;;;5073787;28;20179;-83
2023/03/16 01:46:04;;;;;;;2.63;1.40;;;-0.60;99.90;;;;;;5091827;28;20195;-83
2023/03/16 01:48:44;;;;;;;1.97;1.50;;;-0.50;99.90;;;;;;5092178;28;20600;-83
2023/03/16 01:51:22;;;;;;;3.20;1.73;;;-0.50;99.90;;;;;;5073794;28;20243;-83
2023/03/16 01:53:55;;;;;;;2.10;1.50;;;-0.70;99.90;;;;;;5091714;28;20662;-83
2023/03/16 01:56:33;;;;;;;3.17;1.77;;;-0.80;99.90;;;;;;5091859;28;20246;-83
2023/03/16 01:59:04;;;;;;;2.27;1.77;;;-0.70;99.90;;;;;;5092061;28;20240;-83
2023/03/16 02:01:30;;;;;;;2.50;1.47;;;-0.60;99.90;;;;;;5073689;28;20283;-83
2023/03/16 02:04:21;;;;;;;2.70;1.43;;;-0.70;99.90;;;;;;5074027;28;20275;-83
2023/03/16 02:06:47;;;;;;;2.80;1.50;;;-0.90;99.90;;;;;;5091654;28;20184;-83
2023/03/16 02:09:16;;;;;;;1.83;1.63;;;-0.90;99.90;;;;;;5074049;28;20176;-83
2023/03/16 02:11:42;;;;;;;2.17;1.47;;;-1.00;99.90;;;;;;5073108;28;20200;-83
2023/03/16 02:14:10;;;;;;;2.80;1.43;;;-1.00;99.90;;;;;;5091618;28;20179;-83
2023/03/16 02:16:36;;;;;;;3.40;1.57;;;-0.90;99.90;;;;;;5073508;28;20203;-83
2023/03/16 02:19:06;;;;;;;2.10;1.47;;;-0.90;99.90;;;;;;5077096;28;20182;-83
2023/03/16 02:21:46;;;;;;;4.27;1.70;;;-0.90;99.90;;;;;;5076761;28;20215;-83
2023/03/16 02:24:11;;;;;;;2.10;1.63;;;-0.90;99.90;;;;;;5076916;28;20541;-83
2023/03/16 02:26:44;;;;;;;2.47;1.70;;;-0.90;99.90;;;;;;5095171;28;20646;-83
2023/03/16 02:29:18;;;;;;;4.13;1.67;;;-1.00;99.90;;;;;;5095304;28;20325;-83
2023/03/16 02:31:43;;;;;;;2.37;1.50;;;-1.00;99.90;;;;;;5094673;28;20191;-83
2023/03/16 02:34:10;;;;;;;2.40;1.70;;;-1.00;99.90;;;;;;5095071;28;20183;-83
2023/03/16 02:36:38;;;;;;;2.40;1.30;;;-1.00;99.90;;;;;;5076693;28;20210;-83
2023/03/16 02:39:04;;;;;;;1.80;1.50;;;-1.00;99.90;;;;;;5095125;28;20176;-82
2023/03/16 02:41:33;;;;;;;2.13;1.23;;;-1.00;99.90;;;;;;5094923;28;20191;-83
2023/03/16 02:44:13;;;;;;;2.23;1.33;;;-1.10;99.90;;;;;;5076635;28;20203;-83
2023/03/16 02:46:42;;;;;;;3.50;1.67;;;-1.20;99.90;;;;;;5094712;28;20168;-83
2023/03/16 02:49:18;;;;;;;4.23;1.70;;;-1.20;99.90;;;;;;5076731;28;20259;-83
2023/03/16 02:51:45;;;;;;;2.47;1.50;;;-1.30;99.90;;;;;;5094588;28;20215;-83
2023/03/16 02:54:11;;;;;;;2.00;1.30;;;-1.30;99.90;;;;;;5076272;28;20186;-83
2023/03/16 02:56:37;;;;;;;1.53;1.40;;;-1.40;99.90;;;;;;5093019;28;20211;-83
2023/03/16 02:59:03;;;;;;;4.60;2.27;;;-1.50;99.90;;;;;;5076445;28;20179;-83
2023/03/16 03:01:30;;;;;;;3.03;1.30;;;-1.70;99.90;;;;;;5075985;28;20281;-83
2023/03/16 03:03:56;;;;;;;3.47;1.40;;;-1.80;99.90;;;;;;5076143;28;20175;-83
2023/03/16 03:06:24;;;;;;;2.73;1.67;;;-1.80;99.90;;;;;;5076296;28;20262;-83
2023/03/16 03:08:50;;;;;;;5.40;1.43;;;-1.80;99.90;;;;;;5094267;28;20172;-83
2023/03/16 03:11:17;;;;;;;3.87;1.60;;;-1.70;99.90;;;;;;5075858;28;20229;-83
2023/03/16 03:13:43;;;;;;;1.70;1.10;;;-1.50;99.90;;;;;;5076399;28;20183;-83
2023/03/16 03:16:09;;;;;;;3.40;1.20;;;-1.50;99.90;;;;;;5094382;28;20214;-83
2023/03/16 03:18:35;;;;;;;1.67;1.30;;;-1.40;99.90;;;;;;5076244;28;20172;-83
2023/03/16 03:21:00;;;;;;;2.87;1.50;;;-1.50;99.90;;;;;;5075934;28;20211;-83
2023/03/16 03:23:26;;;;;;;2.30;1.70;;;-1.40;99.90;;;;;;5075964;28;20293;-83
2023/03/16 03:25:55;;;;;;;3.53;1.67;;;-1.50;99.90;;;;;;5075841;28;20184;-83
2023/03/16 03:28:21;;;;;;;1.60;1.40;;;-1.40;99.90;;;;;;5075137;28;20172;-82
2023/03/16 03:30:46;;;;;;;2.13;1.30;;;-1.40;99.90;;;;;;5093420;28;20598;-83
2023/03/16 03:33:12;;;;;;;2.77;1.70;;;-1.50;99.90;;;;;;5075776;28;20207;-82
2023/03/16 03:35:37;;;;;;;2.50;1.70;;;-1.50;99.90;;;;;;5075824;28;20195;-83
2023/03/16 03:38:03;;;;;;;2.17;1.50;;;-1.60;99.90;;;;;;5075677;28;20189;-83
2023/03/16 03:40:28;;;;;;;1.73;1.60;;;-1.70;99.90;;;;;;5075322;28;20193;-83
2023/03/16 03:42:54;;;;;;;2.17;1.40;;;-1.60;99.90;;;;;;5075820;28;20179;-83
2023/03/16 03:45:19;;;;;;;5.87;1.60;;;-1.60;99.90;;;;;;5075690;28;20195;-82
2023/03/16 03:47:45;;;;;;;2.60;1.60;;;-1.70;99.90;;;;;;5093704;28;20193;-83
2023/03/16 03:50:12;;;;;;;3.30;1.80;;;-2.00;99.90;;;;;;5093165;28;20230;-83
2023/03/16 03:52:38;;;;;;;4.37;1.90;;;-2.00;99.90;;;;;;5075428;28;20235;-83
2023/03/16 03:55:04;;;;;;;2.13;1.50;;;-2.00;99.90;;;;;;5075159;28;20168;-82
2023/03/16 03:57:30;;;;;;;2.37;1.50;;;-1.90;99.90;;;;;;5074939;28;20272;-83
2023/03/16 03:59:55;;;;;;;3.00;1.80;;;-1.80;99.90;;;;;;5075134;28;20199;-82
2023/03/16 04:02:21;;;;;;;4.20;1.83;;;-2.00;99.90;;;;;;5093124;28;20243;-83
2023/03/16 04:04:47;;;;;;;3.63;1.70;;;-2.10;99.90;;;;;;5075052;28;20224;-83
2023/03/16 04:07:13;;;;;;;1.90;1.60;;;-2.00;99.90;;;;;;5075196;28;20179;-83
2023/03/16 04:09:38;;;;;;;2.33;1.63;;;-1.90;99.90;;;;;;5092815;28;20170;-81
2023/03/16 04:12:05;;;;;;;3.20;1.43;;;-1.90;99.90;;;;;;5074868;28;20202;-83
2023/03/16 04:14:31;;;;;;;1.93;1.37;;;-1.90;99.90;;;;;;5093138;28;20175;-83
2023/03/16 04:16:56;;;;;;;2.97;1.30;;;-1.90;99.90;;;;;;5074939;28;20214;-83
2023/03/16 04:19:23;;;;;;;2.77;1.43;;;-1.90;99.90;;;;;;5093091;28;20545;-83
2023/03/16 04:21:49;;;;;;;2.63;1.27;;;-1.90;99.90;;;;;;5092590;28;20205;-83
2023/03/16 04:24:15;;;;;;;2.93;1.53;;;-1.90;99.90;;;;;;5092701;28;20178;-83
2023/03/16 04:26:43;;;;;;;2.83;1.43;;;-1.90;99.90;;;;;;5074740;28;20174;-83
2023/03/16 04:29:10;;;;;;;3.10;1.40;;;-1.90;99.90;;;;;;5074735;28;20184;-83
2023/03/16 04:31:35;;;;;;;2.97;1.47;;;-1.90;99.90;;;;;;5074490;28;20202;-83
2023/03/16 04:34:01;;;;;;;2.33;1.50;;;-1.90;99.90;;;;;;5092717;28;20178;-83
2023/03/16 04:36:27;;;;;;;3.07;1.60;;;-2.00;99.90;;;;;;5074570;28;20292;-82
2023/03/16 04:38:53;;;;;;;2.20;1.30;;;-2.00;99.90;;;;;;5074470;28;20270;-83
2023/03/16 04:41:18;;;;;;;2.00;1.40;;;-1.90;99.90;;;;;;5074328;28;20254;-82
2023/03/16 04:43:44;;;;;;;2.77;1.67;;;-2.10;99.90;;;;;;5074610;28;20166;-82
2023/03/16 04:46:10;;;;;;;3.67;1.70;;;-2.10;99.90;;;;;;5074431;28;20178;-83
2023/03/16 04:48:36;;;;;;;2.50;1.60;;;-2.20;99.90;;;;;;5074515;28;20234;-83
2023/03/16 04:51:03;;;;;;;2.77;1.73;;;-2.30;99.90;;;;;;5092220;28;20281;-82
2023/03/16 04:53:32;;;;;;;1.50;1.40;;;-2.20;99.90;;;;;;5074255;28;20178;-83
2023/03/16 04:55:58;;;;;;;1.87;1.40;;;-2.20;99.90;;;;;;5074433;28;20574;-83
2023/03/16 04:58:23;;;;;;;2.70;1.70;;;-2.10;99.90;;;;;;5092482;28;20629;-83
2023/03/16 05:00:54;;;;;;;1.70;1.60;;;-2.10;99.90;;;;;;5074213;28;20192;-83
2023/03/16 05:03:20;;;;;;;2.00;1.43;;;-2.10;99.90;;;;;;5074674;28;20169;-82
2023/03/16 05:05:46;;;;;;;2.60;1.60;;;-2.00;99.90;;;;;;5074360;28;20641;-82
2023/03/16 05:08:12;;;;;;;2.97;1.63;;;-2.00;99.90;;;;;;5092383;28;20177;-83
2023/03/16 05:10:38;;;;;;;2.93;1.60;;;-2.10;99.90;;;;;;5092312;28;20194;-83
2023/03/16 05:13:04;;;;;;;2.50;1.50;;;-2.00;99.90;;;;;;5092347;28;20182;-83
2023/03/16 05:15:30;;;;;;;4.10;1.50;;;-2.20;99.90;;;;;;5074183;28;20271;-82
2023/03/16 05:17:56;;;;;;;2.63;1.30;;;-2.10;99.90;;;;;;5092075;28;20210;-83
2023/03/16 05:20:34;;;;;;;2.60;1.50;;;-2.20;99.90;;;;;;5073809;28;20180;-82
2023/03/16 05:23:00;;;;;;;2.17;1.60;;;-2.20;99.90;;;;;;5092450;28;20165;-82
2023/03/16 05:25:25;;;;;;;2.23;1.23;;;-2.10;99.90;;;;;;5074047;28;20167;-82
2023/03/16 05:27:53;;;;;;;2.77;1.37;;;-2.10;99.90;;;;;;5074122;28;20175;-86
2023/03/16 05:30:19;;;;;;;2.77;1.23;;;-2.10;99.90;;;;;;5073718;28;20166;-87
2023/03/16 05:32:44;;;;;;;2.03;1.20;;;-2.10;99.90;;;;;;5092007;28;20281;-88
2023/03/16 05:35:12;;;;;;;2.27;1.30;;;-2.10;99.90;;;;;;5091545;28;20172;-83
2023/03/16 05:37:41;;;;;;;3.03;1.50;;;-1.50;99.90;;;;;;5092322;28;20198;-82
2023/03/16 05:40:16;;;;;;;2.13;1.40;;;-0.20;99.90;;;;;;5074163;28;20187;-83
2023/03/16 05:42:47;;;;;;;2.57;1.37;;;0.60;99.90;;;;;;5092215;28;20191;-83
2023/03/16 05:45:14;;;;;;;3.10;1.50;;;1.20;99.90;;;;;;5074098;28;20172;-83
2023/03/16 05:47:41;;;;;;;1.67;1.30;;;1.70;99.90;;;;;;5092006;28;20182;-87
2023/03/16 05:50:10;;;;;;;2.83;1.50;;;2.00;99.90;;;;;;5073517;28;20619;-87
2023/03/16 05:52:39;;;;;;;1.80;1.40;;;1.30;99.90;;;;;;5093422;28;20192;-86
2023/03/16 05:55:06;;;;;;;2.30;1.40;;;0.50;99.90;;;;;;5095640;28;20573;-85
2023/03/16 05:57:33;;;;;;;2.40;1.50;;;-0.20;99.90;;;;;;5095228;28;20303;-83
2023/03/16 05:59:59;;;;;;;2.50;1.60;;;-0.60;99.90;;;;;;5077169;28;20221;-85
2023/03/16 06:02:24;;;;;;;2.40;1.47;;;-0.90;99.90;;;;;;5077052;28;20197;-86
2023/03/16 06:04:50;;;;;;;3.00;1.50;;;-1.20;99.90;;;;;;5077209;28;20168;-85
2023/03/16 06:07:15;;;;;;;2.40;1.40;;;-1.30;99.90;;;;;;5095247;28;20181;-85
2023/03/16 06:09:41;;;;;;;2.60;1.67;;;-1.30;99.90;;;;;;5076976;28;20183;-86
2023/03/16 06:12:08;;;;;;;3.60;1.70;;;-1.40;99.90;;;;;;5095678;28;20199;-85
2023/03/16 06:14:34;;;;;;;2.37;1.50;;;-1.50;99.90;;;;;;5077059;28;20176;-87
2023/03/16 06:16:59;;;;;;;3.23;1.57;;;-1.60;99.90;;;;;;5076916;28;20237;-87
2023/03/16 06:19:25;;;;;;;3.43;1.70;;;-1.70;99.90;;;;;;5095344;28;20177;-84
2023/03/16 06:21:50;;;;;;;2.20;1.60;;;-1.80;99.90;;;;;;5094832;28;20215;-88
2023/03/16 06:24:16;;;;;;;3.27;1.47;;;-1.90;99.90;;;;;;5076795;28;20179;-88
2023/03/16 06:26:41;;;;;;;2.97;1.80;;;-1.80;99.90;;;;;;5094915;28;20181;-88
2023/03/16 06:29:07;;;;;;;2.73;1.73;;;-1.80;99.90;;;;;;5094806;28;20558;-87
2023/03/16 06:31:33;;;;;;;2.43;1.60;;;-1.60;99.90;;;;;;5076468;28;20606;-87
2023/03/16 06:33:59;;;;;;;1.87;1.43;;;-1.60;99.90;;;;;;5076670;28;20182;-89
2023/03/16 06:36:25;;;;;;;2.27;1.40;;;-1.50;99.90;;;;;;5077622;28;20202;-88
2023/03/16 06:38:51;;;;;;;5.43;3.63;;;-1.50;99.90;;;;;;5094717;28;20225;-88
2023/03/16 06:41:16;;;;;;;3.57;1.77;;;-1.40;99.90;;;;;;5076487;28;20193;-84
2023/03/16 06:43:42;;;;;;;4.70;1.80;;;-0.90;99.90;;;;;;5077400;28;20606;-83
2023/03/16 06:46:08;;;;;;;3.03;1.80;;;-0.90;99.90;;;;;;5077008;28;20183;-82
2023/03/16 06:48:34;;;;;;;1.80;1.60;;;-0.90;99.90;;;;;;5076787;28;20176;-85
2023/03/16 06:51:00;;;;;;;2.90;1.70;;;-0.90;99.90;;;;;;5094866;28;20215;-86
2023/03/16 06:53:26;;;;;;;2.10;1.50;;;-0.90;99.90;;;;;;5076452;28;20621;-87
2023/03/16 06:55:51;;;;;;;2.93;1.80;;;-1.10;99.90;;;;;;5076244;28;20203;-87
2023/03/16 06:58:17;;;;;;;5.67;1.90;;;-1.10;99.90;;;;;;5076374;28;20554;-84
2023/03/16 07:00:42;;;;;;;2.43;1.70;;;-1.20;99.90;;;;;;5094437;28;20192;-85
2023/03/16 07:03:08;;;;;;;2.23;1.57;;;-1.20;99.90;;;;;;5075791;28;20260;-88
2023/03/16 07:05:33;;;;;;;3.30;1.87;;;-1.20;99.90;;;;;;5093791;28;20186;-89
2023/03/16 07:08:00;;;;;;;4.53;2.33;;;-1.10;99.90;;;;;;5075950;28;20642;-88
2023/03/16 07:10:25;;;;;;;4.97;3.30;;;-1.20;99.90;;;;;;5075773;28;20292;-89
2023/03/16 07:12:51;;;;;;;7.37;3.53;;;-1.10;99.90;;;;;;5076219;28;20254;-88
2023/03/16 07:15:17;;;;;;;7.00;3.70;;;-1.10;99.90;;;;;;5093931;28;20183;-89
2023/03/16 07:17:43;;;;;;;4.70;3.30;;;-1.00;99.90;;;;;;5094180;28;20259;-89
2023/03/16 07:20:11;;;;;;;4.67;2.77;;;-0.90;99.90;;;;;;5075681;28;20179;-87
2023/03/16 07:22:38;;;;;;;4.97;2.50;;;-0.80;99.90;;;;;;5093891;28;20185;-88
2023/03/16 07:25:05;;;;;;;4.43;2.73;;;-0.80;99.90;;;;;;5093873;28;20223;-89
2023/03/16 07:27:30;;;;;;;4.57;1.90;;;-0.70;99.90;;;;;;5093628;28;20563;-89
2023/03/16 07:29:56;;;;;;;2.47;1.90;;;-0.60;99.90;;;;;;5075490;28;20638;-88
2023/03/16 07:32:21;;;;;;;3.23;2.00;;;-0.40;99.90;;;;;;5075589;28;20198;-87
2023/03/16 07:34:47;;;;;;;4.30;2.10;;;-0.30;99.90;;;;;;5093567;28;20207;-87
2023/03/16 07:37:14;;;;;;;3.17;1.80;;;-0.30;99.90;;;;;;5075438;28;20631;-88
2023/03/16 07:39:40;;;;;;;3.63;2.03;;;-0.20;99.90;;;;;;5093489;28;20167;-88
2023/03/16 07:42:06;;;;;;;3.53;2.00;;;-0.10;99.90;;;;;;5093830;28;20235;-88
2023/03/16 07:44:32;;;;;;;3.30;2.07;;;-0.10;99.90;;;;;;5075889;28;20580;-89
2023/03/16 07:46:57;;;;;;;11.93;8.63;;;0.00;99.90;;;;;;5075422;28;20209;-82
2023/03/16 07:49:23;;;;;;;17.97;11.10;;;1.40;99.90;;;;;;5078666;28;20274;-82
2023/03/16 07:51:48;;;;;;;12.63;7.97;;;6.40;99.90;;;;;;5096851;28;20196;-82
2023/03/16 07:54:14;;;;;;;5.60;3.63;;;8.40;99.90;;;;;;5075547;28;20663;-82
2023/03/16 07:56:40;;;;;;;3.97;2.40;;;9.20;99.90;;;;;;5075367;28;20192;-82
2023/03/16 07:59:06;;;;;;;4.43;2.20;;;10.30;99.90;;;;;;5075354;28;20169;-82
2023/03/16 08:01:33;;;;;;;2.80;1.93;;;9.60;99.90;;;;;;5075773;28;20221;-85
2023/03/16 08:04:00;;;;;;;8.40;7.13;;;10.20;99.90;;;;;;5093953;28;20170;-82
2023/03/16 08:06:26;;;;;;;3.73;2.60;;;10.90;99.90;;;;;;5075725;28;20172;-83
2023/03/16 08:08:52;;;;;;;3.13;2.37;;;10.00;99.90;;;;;;5093524;28;20201;-84
2023/03/16 08:11:24;;;;;;;4.13;2.80;;;10.10;99.90;;;;;;5074565;28;20227;-86
2023/03/16 08:13:53;;;;;;;3.63;2.57;;;9.00;99.90;;;;;;5075266;28;20202;-89
2023/03/16 08:16:26;;;;;;;5.80;2.43;;;7.70;99.90;;;;;;5092291;28;20297;-89
2023/03/16 08:18:54;;;;;;;4.17;2.40;;;6.30;99.90;;;;;;5074731;28;20173;-89
2023/03/16 08:21:20;;;;;;;5.50;2.60;;;5.20;99.90;;;;;;5074183;28;20358;-89
2023/03/16 08:23:49;;;;;;;4.70;2.70;;;4.70;99.90;;;;;;5092768;28;20718;-89
2023/03/16 08:26:21;;;;;;;3.37;2.73;;;4.20;99.90;;;;;;5092919;28;20176;-89
2023/03/16 08:28:50;;;;;;;4.00;2.70;;;3.80;99.90;;;;;;5074696;28;20188;-89
2023/03/16 08:31:17;;;;;;;6.17;4.80;;;3.80;99.90;;;;;;5092688;28;20199;-89
2023/03/16 08:33:45;;;;;;;3.97;2.50;;;3.70;99.90;;;;;;5092667;28;20205;-90
2023/03/16 08:36:14;;;;;;;2.77;2.50;;;3.70;99.90;;;;;;5074523;28;20234;-88
2023/03/16 08:38:40;;;;;;;3.63;2.53;;;3.60;99.90;;;;;;5074545;28;20532;-90
2023/03/16 08:41:06;;;;;;;4.47;2.20;;;3.70;99.90;;;;;;5092391;28;20250;-88
2023/03/16 08:43:32;;;;;;;1.43;1.33;;;3.90;99.90;;;;;;5092279;28;20215;-89
2023/03/16 08:45:58;;;;;;;2.40;1.40;;;3.90;99.90;;;;;;5072519;28;20203;-89
2023/03/16 08:48:24;;;;;;;2.07;1.47;;;4.00;99.90;;;;;;5073927;28;20214;-91
2023/03/16 08:50:50;;;;;;;2.80;1.60;;;4.00;99.90;;;;;;5073677;28;20195;-90
2023/03/16 08:53:17;;;;;;;2.10;1.43;;;4.00;99.90;;;;;;5091688;28;20301;-90
2023/03/16 08:55:43;;;;;;;2.00;1.30;;;4.10;99.90;;;;;;5091577;28;20259;-90
2023/03/16 08:58:10;;;;;;;3.50;1.30;;;4.20;99.90;;;;;;5074200;28;20168;-89
2023/03/16 09:00:37;;;;;;;2.80;1.27;;;4.30;99.90;;;;;;5092063;28;20244;-90
2023/03/16 09:03:03;;;;;;;1.27;1.17;;;4.30;99.90;;;;;;5092326;28;20172;-90
2023/03/16 09:05:29;;;;;;;1.60;1.27;;;4.40;99.90;;;;;;5074040;28;20173;-89
2023/03/16 09:07:55;;;;;;;1.90;1.30;;;4.50;99.90;;;;;;5092397;28;20172;-90
2023/03/16 09:10:22;;;;;;;2.03;1.03;;;4.60;99.90;;;;;;5092131;28;20175;-89
2023/03/16 09:12:48;;;;;;;2.10;1.20;;;4.70;99.90;;;;;;5073921;28;20721;-90
2023/03/16 09:15:14;;;;;;;1.63;1.20;;;4.70;99.90;;;;;;5092064;28;20200;-89
2023/03/16 09:17:41;;;;;;;1.13;0.90;;;4.80;99.90;;;;;;5074114;28;20295;-89
2023/03/16 09:20:09;;;;;;;1.33;1.07;;;5.00;99.90;;;;;;5091954;28;20175;-89
2023/03/16 09:22:36;;;;;;;1.63;1.07;;;5.00;99.90;;;;;;5074080;28;20185;-89
2023/03/16 09:25:05;;;;;;;1.40;1.10;;;5.20;99.90;;;;;;5073993;28;20165;-88
2023/03/16 09:27:35;;;;;;;1.20;1.03;;;5.20;99.60;;;;;;5093587;28;20164;-89
2023/03/16 09:30:04;;;;;;;2.40;1.20;;;5.30;96.70;;;;;;5077796;28;20176;-89
2023/03/16 09:32:30;;;;;;;2.57;1.07;;;5.30;99.90;;;;;;5077996;28;20172;-88
2023/03/16 09:34:56;;;;;;;2.73;1.23;;;5.50;97.00;;;;;;5077986;28;20241;-89
2023/03/16 09:37:22;;;;;;;1.73;1.10;;;5.40;99.90;;;;;;5078069;28;20208;-89
2023/03/16 09:39:48;;;;;;;2.37;1.13;;;5.60;99.10;;;;;;5078004;28;20169;-90
2023/03/16 09:42:22;;;;;;;3.30;1.20;;;5.70;93.40;;;;;;5078135;28;20188;-88
2023/03/16 09:45:06;;;;;;;1.30;1.00;;;5.80;98.40;;;;;;5078247;28;20172;-89
2023/03/16 09:47:34;;;;;;;1.77;1.10;;;5.80;92.70;;;;;;5078855;28;20172;-89
2023/03/16 09:50:04;;;;;;;3.00;1.03;;;5.90;95.30;;;;;;5097733;28;20172;-89
2023/03/16 09:53:04;;;;;;;1.03;0.90;;;6.00;94.40;;;;;;5080377;28;20172;-88
2023/03/16 09:55:32;;;;;;;1.10;1.00;;;6.10;88.50;;;;;;5079163;28;20172;-88
2023/03/16 09:57:59;;;;;;;1.50;1.10;;;6.00;79.20;;;;;;5099822;28;20169;-89
2023/03/16 10:00:30;;;;;;;2.23;1.07;;;6.10;92.60;;;;;;5081467;28;20193;-89
2023/03/16 10:03:17;;;;;;;1.40;1.10;;;6.30;92.50;;;;;;5079791;28;20164;-89
2023/03/16 10:05:44;;;;;;;1.10;1.00;;;6.50;74.40;;;;;;5079315;28;20165;-89
2023/03/16 10:08:21;;;;;;;1.47;1.30;;;6.40;79.40;;;;;;5079690;28;20170;-89
2023/03/16 10:11:04;;;;;;;2.53;1.40;;;6.40;80.50;;;;;;5078778;28;20280;-89
2023/03/16 10:13:45;;;;;;;1.50;1.40;;;6.40;78.50;;;;;;5078271;28;20166;-89
2023/03/16 10:16:19;;;;;;;1.20;1.10;;;6.40;83.30;;;;;;5077922;28;20205;-89
2023/03/16 10:18:57;;;;;;;2.53;1.20;;;6.40;85.20;;;;;;5077679;28;20202;-89
2023/03/16 10:21:23;;;;;;;1.30;1.10;;;6.20;75.80;;;;;;5077055;28;20207;-89
2023/03/16 10:23:54;;;;;;;1.83;1.50;;;6.30;78.50;;;;;;5077283;28;20165;-89
2023/03/16 10:26:30;;;;;;;2.03;1.10;;;6.60;88.70;;;;;;5095112;28;20173;-88
2023/03/16 10:28:55;;;;;;;2.17;1.20;;;6.90;83.90;;;;;;5077168;28;20197;-89
2023/03/16 10:31:23;;;;;;;1.60;1.30;;;7.00;78.20;;;;;;5095051;28;20686;-89
2023/03/16 10:33:54;;;;;;;1.60;1.30;;;7.00;72.00;;;;;;5076958;28;20179;-89
2023/03/16 10:36:33;;;;;;;1.43;1.20;;;6.90;66.10;;;;;;5076939;28;20663;-88
2023/03/16 10:39:07;;;;;;;1.23;1.07;;;7.10;82.00;;;;;;5076501;28;20173;-89
2023/03/16 10:41:54;;;;;;;1.40;1.10;;;7.20;69.30;;;;;;5076612;28;20193;-89
2023/03/16 10:44:29;;;;;;;1.93;1.03;;;7.10;58.20;;;;;;5094901;28;20195;-89
2023/03/16 10:47:00;;;;;;;1.50;1.30;;;7.20;89.00;;;;;;5076655;28;20182;-88
2023/03/16 10:49:45;;;;;;;2.17;1.60;;;7.30;81.10;;;;;;5076392;28;20171;-89
2023/03/16 10:52:22;;;;;;;2.00;1.57;;;7.50;91.80;;;;;;5076353;28;20749;-89
2023/03/16 10:55:09;;;;;;;2.37;1.73;;;7.70;91.60;;;;;;5076541;28;20171;-89
2023/03/16 10:57:36;;;;;;;2.77;1.53;;;7.80;83.50;;;;;;5094491;28;20237;-89
2023/03/16 11:00:14;;;;;;;2.13;1.73;;;7.60;71.20;;;;;;5076292;28;20172;-89
2023/03/16 11:02:41;;;;;;;2.13;1.93;;;7.80;89.80;;;;;;5093641;28;20179;-87
2023/03/16 11:05:27;;;;;;;2.00;1.70;;;7.90;93.10;;;;;;5094877;28;20215;-89
2023/03/16 11:08:10;;;;;;;2.27;2.07;;;7.90;93.60;;;;;;5097353;28;20251;-89
2023/03/16 11:10:41;;;;;;;2.73;1.90;;;8.20;85.30;;;;;;5096541;28;20188;-88
2023/03/16 11:13:18;;;;;;;2.50;1.80;;;8.40;91.00;;;;;;5094701;28;20179;-89
2023/03/16 11:15:49;;;;;;;3.20;2.23;;;8.10;84.50;;;;;;5095800;28;20181;-86
2023/03/16 11:18:29;;;;;;;2.33;1.90;;;8.50;92.60;;;;;;5079680;28;20608;-85
2023/03/16 11:21:03;;;;;;;2.70;2.10;;;8.60;91.50;;;;;;5097600;22;20976;-83
2023/03/16 11:23:35;;;;;;;3.77;1.90;;;8.70;81.20;;;;;;5064999;28;20206;-85
2023/03/16 11:26:06;;;;;;;3.47;2.00;;;8.80;73.60;;;;;;5055750;28;20169;-83
2023/03/16 11:28:44;;;;;;;3.87;2.13;;;8.60;91.10;;;;;;5057704;28;20182;-83
2023/03/16 11:31:19;;;;;;;3.07;2.30;;;8.60;93.70;;;;;;5053876;28;20289;-87
2023/03/16 11:33:46;;;;;;;4.97;2.97;;;8.70;89.90;;;;;;5036263;28;20552;-78
2023/03/16 11:36:32;;;;;;;5.53;2.37;;;9.00;99.90;;;;;;5054051;28;20210;-79
2023/03/16 11:39:39;;;;;;;4.10;2.20;;;9.50;99.90;;;;;;5053950;28;20169;-79
2023/03/16 11:42:29;;;;;;;3.80;2.60;;;9.30;78.60;;;;;;5053665;28;20275;-79
2023/03/16 11:45:00;;;;;;;3.50;2.50;;;9.80;86.60;;;;;;5036210;28;20187;-78
2023/03/16 11:47:51;;;;;;;2.53;2.17;;;10.30;96.30;;;;;;5055112;28;20210;-83
2023/03/16 11:50:21;;;;;;;2.53;2.07;;;10.50;93.90;;;;;;5053781;28;20173;-83
2023/03/16 11:53:23;;;;;;;2.50;2.20;;;10.60;91.10;;;;;;5054567;28;20196;-82
2023/03/16 11:56:22;;;;;;;2.67;2.20;;;10.20;99.90;;;;;;5036672;28;20179;-83
2023/03/16 11:59:00;;;;;;;4.40;2.50;;;10.20;67.70;;;;;;5066125;28;20299;-83
2023/03/16 12:01:44;;;;;;;3.57;2.60;;;10.20;99.90;;;;;;5054894;28;20191;-84
2023/03/16 12:04:26;;;;;;;3.20;2.10;;;10.80;99.50;;;;;;5074447;28;20180;-80
2023/03/16 12:07:17;;;;;;;3.83;2.50;;;10.10;57.20;;;;;;5058435;28;20179;-80
2023/03/16 12:10:09;;;;;;;2.80;2.50;;;9.50;65.80;;;;;;5058924;28;20175;-80
2023/03/16 12:12:48;;;;;;;3.90;2.23;;;9.30;79.70;;;;;;5077813;28;20199;-78
2023/03/16 12:15:16;;;;;;;3.07;2.30;;;10.00;97.40;;;;;;5059347;28;20254;-78
2023/03/16 12:17:43;;;;;;;4.17;2.60;;;10.60;91.70;;;;;;5075378;28;20204;-80
2023/03/16 12:20:14;;;;;;;2.40;1.70;;;10.30;71.50;;;;;;5057905;28;20179;-80
2023/03/16 12:22:48;;;;;;;2.30;1.80;;;9.90;45.70;;;;;;5075894;28;20232;-81
2023/03/16 12:25:31;;;;;;;2.30;2.00;;;9.30;54.80;;;;;;5050363;28;20544;-80
2023/03/16 12:28:01;;;;;;;2.97;2.00;;;9.30;49.50;;;;;;5076510;28;20223;-81
2023/03/16 12:30:45;;;;;;;2.10;1.90;;;9.20;47.10;;;;;;5075880;28;20206;-80
2023/03/16 12:33:39;;;;;;;2.30;2.03;;;9.30;56.00;;;;;;5072927;28;20189;-83
2023/03/16 12:36:38;;;;;;;3.87;2.80;;;9.20;73.50;;;;;;5074670;28;20203;-82
2023/03/16 12:39:08;;;;;;;2.97;2.20;;;10.10;86.80;;;;;;5055703;28;20555;-81
2023/03/16 12:41:54;;;;;;;2.67;1.70;;;10.40;71.60;;;;;;5053832;28;20192;-81
2023/03/16 12:44:51;;;;;;;2.17;1.43;;;9.80;40.50;;;;;;5057689;28;20180;-81
2023/03/16 12:47:30;;;;;;;1.83;1.60;;;9.60;43.50;;;;;;5051478;28;20185;-81
2023/03/16 12:50:06;;;;;;;2.43;1.80;;;9.20;41.30;;;;;;5047614;28;20176;-81
2023/03/16 12:52:41;;;;;;;2.27;1.60;;;8.70;40.90;;;;;;5065598;28;20190;-81
2023/03/16 12:55:20;;;;;;;2.03;1.80;;;8.50;41.60;;;;;;5076263;28;20192;-81
2023/03/16 12:57:48;;;;;;;2.03;1.80;;;8.30;48.40;;;;;;5057794;28;20192;-81
2023/03/16 13:00:15;;;;;;;2.77;1.63;;;8.10;48.10;;;;;;5057556;28;20272;-82
2023/03/16 13:02:54;;;;;;;1.90;1.70;;;8.10;63.30;;;;;;5057772;28;20185;-83